sensor_id;sensor_type;location;lat;lon;timestamp;P1;durP1;ratioP1;P2;durP2;ratioP2
1360;SDS011;674;45.552;-122.600;2022-12-07T00:01:45;41.00;;;29.50;;
1360;SDS011;674;45.552;-122.600;2022-12-07T00:04:15;40.50;;;28.60;;
1360;SDS011;674;45.552;-122.600;2022-12-07T00:06:46;37.33;;;27.83;;
1360;SDS011;674;45.552;-122.600;2022-12-07T00:09:20;37.00;;;26.60;;
1360;SDS011;674;45.552;-122.600;2022-12-07T00:11:50;36.13;;;26.57;;
1360;SDS011;674;45.552;-122.600;2022-12-07T00:14:19;40.80;;;29.20;;
1360;SDS011;674;45.552;-122.600;2022-12-07T00:16:49;35.93;;;27.00;;
1360;SDS011;674;45.552;-122.600;2022-12-07T00:19:18;38.47;;;28.13;;
1360;SDS011;674;45.552;-122.600;2022-12-07T00:21:47;42.13;;;27.07;;
1360;SDS011;674;45.552;-122.600;2022-12-07T00:24:16;39.87;;;27.40;;
1360;SDS011;674;45.552;-122.600;2022-12-07T00:26:44;37.03;;;27.77;;
1360;SDS011;674;45.552;-122.600;2022-12-07T00:29:17;34.90;;;24.03;;
1360;SDS011;674;45.552;-122.600;2022-12-07T00:31:47;35.50;;;25.87;;
1360;SDS011;674;45.552;-122.600;2022-12-07T00:34:17;35.40;;;25.80;;
1360;SDS011;674;45.552;-122.600;2022-12-07T00:36:47;41.63;;;28.80;;
1360;SDS011;674;45.552;-122.600;2022-12-07T00:39:16;40.93;;;26.33;;
1360;SDS011;674;45.552;-122.600;2022-12-07T00:41:44;35.83;;;27.30;;
1360;SDS011;674;45.552;-122.600;2022-12-07T00:44:13;35.97;;;24.10;;
1360;SDS011;674;45.552;-122.600;2022-12-07T00:46:41;35.73;;;26.20;;
1360;SDS011;674;45.552;-122.600;2022-12-07T00:49:10;41.03;;;29.40;;
1360;SDS011;674;45.552;-122.600;2022-12-07T00:51:38;41.17;;;28.43;;
1360;SDS011;674;45.552;-122.600;2022-12-07T00:54:07;40.10;;;27.50;;
1360;SDS011;674;45.552;-122.600;2022-12-07T00:56:35;33.93;;;25.07;;
1360;SDS011;674;45.552;-122.600;2022-12-07T00:59:04;39.00;;;28.73;;
1360;SDS011;674;45.552;-122.600;2022-12-07T01:01:34;44.33;;;29.80;;
1360;SDS011;674;45.552;-122.600;2022-12-07T01:04:04;46.77;;;33.57;;
1360;SDS011;674;45.552;-122.600;2022-12-07T01:06:32;36.50;;;26.73;;
1360;SDS011;674;45.552;-122.600;2022-12-07T01:09:01;34.13;;;25.07;;
1360;SDS011;674;45.552;-122.600;2022-12-07T01:11:31;36.13;;;25.80;;
1360;SDS011;674;45.552;-122.600;2022-12-07T01:14:00;38.00;;;27.07;;
1360;SDS011;674;45.552;-122.600;2022-12-07T01:16:29;40.87;;;28.43;;
1360;SDS011;674;45.552;-122.600;2022-12-07T01:19:00;35.97;;;27.27;;
1360;SDS011;674;45.552;-122.600;2022-12-07T01:21:32;45.60;;;30.03;;
1360;SDS011;674;45.552;-122.600;2022-12-07T01:24:04;41.40;;;29.30;;
1360;SDS011;674;45.552;-122.600;2022-12-07T01:26:34;37.43;;;26.60;;
1360;SDS011;674;45.552;-122.600;2022-12-07T01:29:03;40.47;;;26.60;;
1360;SDS011;674;45.552;-122.600;2022-12-07T01:31:32;46.13;;;29.20;;
1360;SDS011;674;45.552;-122.600;2022-12-07T01:34:01;44.03;;;30.97;;
1360;SDS011;674;45.552;-122.600;2022-12-07T01:36:31;37.63;;;27.53;;
1360;SDS011;674;45.552;-122.600;2022-12-07T01:39:03;36.70;;;26.30;;
1360;SDS011;674;45.552;-122.600;2022-12-07T01:41:34;50.47;;;32.03;;
1360;SDS011;674;45.552;-122.600;2022-12-07T01:46:48;43.60;;;30.57;;
1360;SDS011;674;45.552;-122.600;2022-12-07T01:54:54;43.70;;;29.43;;
1360;SDS011;674;45.552;-122.600;2022-12-07T01:57:28;49.17;;;34.43;;
1360;SDS011;674;45.552;-122.600;2022-12-07T01:59:58;39.30;;;30.80;;
1360;SDS011;674;45.552;-122.600;2022-12-07T02:02:29;40.13;;;28.80;;
1360;SDS011;674;45.552;-122.600;2022-12-07T02:05:05;39.07;;;28.17;;
1360;SDS011;674;45.552;-122.600;2022-12-07T02:07:34;37.20;;;26.40;;
1360;SDS011;674;45.552;-122.600;2022-12-07T02:10:15;40.83;;;28.30;;
1360;SDS011;674;45.552;-122.600;2022-12-07T02:12:44;41.30;;;29.37;;
1360;SDS011;674;45.552;-122.600;2022-12-07T02:15:24;42.67;;;30.07;;
1360;SDS011;674;45.552;-122.600;2022-12-07T02:18:09;43.60;;;31.70;;
1360;SDS011;674;45.552;-122.600;2022-12-07T02:32:21;39.33;;;28.07;;
1360;SDS011;674;45.552;-122.600;2022-12-07T02:35:17;37.97;;;29.00;;
1360;SDS011;674;45.552;-122.600;2022-12-07T02:46:27;49.47;;;34.37;;
1360;SDS011;674;45.552;-122.600;2022-12-07T02:49:01;50.47;;;36.13;;
1360;SDS011;674;45.552;-122.600;2022-12-07T02:51:31;41.90;;;30.10;;
1360;SDS011;674;45.552;-122.600;2022-12-07T02:54:00;41.00;;;29.33;;
1360;SDS011;674;45.552;-122.600;2022-12-07T03:12:55;41.87;;;31.40;;
1360;SDS011;674;45.552;-122.600;2022-12-07T03:18:03;56.50;;;37.40;;
1360;SDS011;674;45.552;-122.600;2022-12-07T03:20:32;55.30;;;41.10;;
1360;SDS011;674;45.552;-122.600;2022-12-07T03:23:05;57.23;;;40.63;;
1360;SDS011;674;45.552;-122.600;2022-12-07T03:25:40;46.63;;;35.80;;
1360;SDS011;674;45.552;-122.600;2022-12-07T03:28:16;47.07;;;34.30;;
1360;SDS011;674;45.552;-122.600;2022-12-07T03:33:29;62.73;;;42.93;;
1360;SDS011;674;45.552;-122.600;2022-12-07T03:36:15;62.53;;;38.70;;
1360;SDS011;674;45.552;-122.600;2022-12-07T03:38:56;63.63;;;43.10;;
1360;SDS011;674;45.552;-122.600;2022-12-07T03:41:31;52.83;;;40.40;;
1360;SDS011;674;45.552;-122.600;2022-12-07T03:44:09;52.00;;;36.97;;
1360;SDS011;674;45.552;-122.600;2022-12-07T03:46:42;51.90;;;37.77;;
1360;SDS011;674;45.552;-122.600;2022-12-07T03:54:37;48.97;;;34.80;;
1360;SDS011;674;45.552;-122.600;2022-12-07T03:57:09;52.13;;;35.87;;
1360;SDS011;674;45.552;-122.600;2022-12-07T03:59:39;53.00;;;37.60;;
1360;SDS011;674;45.552;-122.600;2022-12-07T04:02:10;49.60;;;35.30;;
1360;SDS011;674;45.552;-122.600;2022-12-07T04:04:40;51.10;;;36.37;;
1360;SDS011;674;45.552;-122.600;2022-12-07T04:07:10;52.73;;;37.63;;
1360;SDS011;674;45.552;-122.600;2022-12-07T04:09:40;46.83;;;36.40;;
1360;SDS011;674;45.552;-122.600;2022-12-07T04:12:08;45.50;;;34.00;;
1360;SDS011;674;45.552;-122.600;2022-12-07T04:14:36;47.57;;;34.57;;
1360;SDS011;674;45.552;-122.600;2022-12-07T04:17:05;44.37;;;32.40;;
1360;SDS011;674;45.552;-122.600;2022-12-07T04:19:34;52.90;;;38.83;;
1360;SDS011;674;45.552;-122.600;2022-12-07T04:22:05;58.27;;;42.27;;
1360;SDS011;674;45.552;-122.600;2022-12-07T04:24:35;54.03;;;40.37;;
1360;SDS011;674;45.552;-122.600;2022-12-07T04:27:03;50.90;;;37.60;;
1360;SDS011;674;45.552;-122.600;2022-12-07T04:29:32;56.10;;;41.70;;
1360;SDS011;674;45.552;-122.600;2022-12-07T04:32:00;53.80;;;36.27;;
1360;SDS011;674;45.552;-122.600;2022-12-07T04:34:29;50.87;;;36.47;;
1360;SDS011;674;45.552;-122.600;2022-12-07T04:36:57;51.87;;;37.40;;
1360;SDS011;674;45.552;-122.600;2022-12-07T04:39:27;44.13;;;34.30;;
1360;SDS011;674;45.552;-122.600;2022-12-07T04:41:57;53.27;;;37.40;;
1360;SDS011;674;45.552;-122.600;2022-12-07T04:44:26;57.47;;;42.50;;
1360;SDS011;674;45.552;-122.600;2022-12-07T04:46:55;61.00;;;42.63;;
1360;SDS011;674;45.552;-122.600;2022-12-07T04:49:24;52.60;;;37.87;;
1360;SDS011;674;45.552;-122.600;2022-12-07T04:51:53;51.80;;;36.40;;
1360;SDS011;674;45.552;-122.600;2022-12-07T04:54:22;46.17;;;35.40;;
1360;SDS011;674;45.552;-122.600;2022-12-07T04:56:50;44.03;;;33.50;;
1360;SDS011;674;45.552;-122.600;2022-12-07T04:59:18;49.20;;;35.80;;
1360;SDS011;674;45.552;-122.600;2022-12-07T05:01:47;52.93;;;36.20;;
1360;SDS011;674;45.552;-122.600;2022-12-07T05:04:15;57.70;;;42.13;;
1360;SDS011;674;45.552;-122.600;2022-12-07T05:06:45;53.23;;;35.80;;
1360;SDS011;674;45.552;-122.600;2022-12-07T05:09:13;46.70;;;32.40;;
1360;SDS011;674;45.552;-122.600;2022-12-07T05:11:42;54.07;;;36.03;;
1360;SDS011;674;45.552;-122.600;2022-12-07T05:14:17;58.37;;;39.40;;
1360;SDS011;674;45.552;-122.600;2022-12-07T05:16:49;48.70;;;36.53;;
1360;SDS011;674;45.552;-122.600;2022-12-07T05:19:18;44.13;;;31.30;;
1360;SDS011;674;45.552;-122.600;2022-12-07T05:21:47;43.73;;;32.13;;
1360;SDS011;674;45.552;-122.600;2022-12-07T05:24:16;40.37;;;29.20;;
1360;SDS011;674;45.552;-122.600;2022-12-07T05:26:45;47.03;;;32.23;;
1360;SDS011;674;45.552;-122.600;2022-12-07T05:29:15;50.23;;;31.80;;
1360;SDS011;674;45.552;-122.600;2022-12-07T05:31:44;40.03;;;28.80;;
1360;SDS011;674;45.552;-122.600;2022-12-07T05:34:13;48.77;;;34.00;;
1360;SDS011;674;45.552;-122.600;2022-12-07T05:36:41;53.20;;;32.77;;
1360;SDS011;674;45.552;-122.600;2022-12-07T05:39:10;45.70;;;30.73;;
1360;SDS011;674;45.552;-122.600;2022-12-07T05:41:38;48.90;;;33.20;;
1360;SDS011;674;45.552;-122.600;2022-12-07T05:44:25;40.87;;;27.53;;
1360;SDS011;674;45.552;-122.600;2022-12-07T05:46:53;42.13;;;30.43;;
1360;SDS011;674;45.552;-122.600;2022-12-07T05:49:22;42.33;;;28.60;;
1360;SDS011;674;45.552;-122.600;2022-12-07T05:51:50;42.90;;;29.33;;
1360;SDS011;674;45.552;-122.600;2022-12-07T05:54:19;47.87;;;32.20;;
1360;SDS011;674;45.552;-122.600;2022-12-07T05:56:47;40.40;;;28.80;;
1360;SDS011;674;45.552;-122.600;2022-12-07T05:59:16;49.40;;;35.70;;
1360;SDS011;674;45.552;-122.600;2022-12-07T06:04:20;39.03;;;29.00;;
1360;SDS011;674;45.552;-122.600;2022-12-07T06:06:49;50.23;;;34.10;;
1360;SDS011;674;45.552;-122.600;2022-12-07T06:09:18;45.60;;;31.33;;
1360;SDS011;674;45.552;-122.600;2022-12-07T06:11:48;48.90;;;31.30;;
1360;SDS011;674;45.552;-122.600;2022-12-07T06:14:35;48.03;;;31.50;;
1360;SDS011;674;45.552;-122.600;2022-12-07T06:17:04;43.40;;;28.23;;
1360;SDS011;674;45.552;-122.600;2022-12-07T06:19:33;39.07;;;27.13;;
1360;SDS011;674;45.552;-122.600;2022-12-07T06:22:02;43.40;;;28.17;;
1360;SDS011;674;45.552;-122.600;2022-12-07T06:24:32;43.60;;;28.83;;
1360;SDS011;674;45.552;-122.600;2022-12-07T06:27:00;39.30;;;27.40;;
1360;SDS011;674;45.552;-122.600;2022-12-07T06:29:29;53.23;;;32.30;;
1360;SDS011;674;45.552;-122.600;2022-12-07T06:31:58;52.83;;;31.93;;
1360;SDS011;674;45.552;-122.600;2022-12-07T06:34:27;49.87;;;32.03;;
1360;SDS011;674;45.552;-122.600;2022-12-07T06:36:56;36.03;;;25.00;;
1360;SDS011;674;45.552;-122.600;2022-12-07T06:39:25;48.90;;;29.63;;
1360;SDS011;674;45.552;-122.600;2022-12-07T06:41:55;46.90;;;30.03;;
1360;SDS011;674;45.552;-122.600;2022-12-07T06:44:24;36.97;;;24.57;;
1360;SDS011;674;45.552;-122.600;2022-12-07T06:46:53;48.80;;;31.67;;
1360;SDS011;674;45.552;-122.600;2022-12-07T06:49:41;51.47;;;32.67;;
1360;SDS011;674;45.552;-122.600;2022-12-07T06:52:10;40.63;;;28.60;;
1360;SDS011;674;45.552;-122.600;2022-12-07T06:54:38;41.47;;;27.83;;
1360;SDS011;674;45.552;-122.600;2022-12-07T06:57:07;38.90;;;28.43;;
1360;SDS011;674;45.552;-122.600;2022-12-07T06:59:35;41.50;;;27.50;;
1360;SDS011;674;45.552;-122.600;2022-12-07T07:02:03;38.83;;;28.03;;
1360;SDS011;674;45.552;-122.600;2022-12-07T07:04:32;39.90;;;26.83;;
1360;SDS011;674;45.552;-122.600;2022-12-07T07:07:00;41.07;;;26.33;;
1360;SDS011;674;45.552;-122.600;2022-12-07T07:09:29;34.13;;;24.73;;
1360;SDS011;674;45.552;-122.600;2022-12-07T07:11:57;42.23;;;28.43;;
1360;SDS011;674;45.552;-122.600;2022-12-07T07:14:26;51.33;;;32.53;;
1360;SDS011;674;45.552;-122.600;2022-12-07T07:16:54;40.93;;;27.40;;
1360;SDS011;674;45.552;-122.600;2022-12-07T07:19:23;39.17;;;28.63;;
1360;SDS011;674;45.552;-122.600;2022-12-07T07:21:51;42.97;;;28.60;;
1360;SDS011;674;45.552;-122.600;2022-12-07T07:24:19;48.90;;;31.60;;
1360;SDS011;674;45.552;-122.600;2022-12-07T07:26:48;37.37;;;26.30;;
1360;SDS011;674;45.552;-122.600;2022-12-07T07:29:16;37.20;;;26.70;;
1360;SDS011;674;45.552;-122.600;2022-12-07T07:31:45;34.63;;;24.80;;
1360;SDS011;674;45.552;-122.600;2022-12-07T07:34:13;41.00;;;30.20;;
1360;SDS011;674;45.552;-122.600;2022-12-07T07:36:41;50.23;;;32.30;;
1360;SDS011;674;45.552;-122.600;2022-12-07T07:39:10;39.27;;;27.83;;
1360;SDS011;674;45.552;-122.600;2022-12-07T07:41:41;33.60;;;24.90;;
1360;SDS011;674;45.552;-122.600;2022-12-07T07:44:10;46.43;;;31.90;;
1360;SDS011;674;45.552;-122.600;2022-12-07T07:46:38;46.73;;;31.77;;
1360;SDS011;674;45.552;-122.600;2022-12-07T07:49:07;43.03;;;30.87;;
1360;SDS011;674;45.552;-122.600;2022-12-07T07:51:37;33.90;;;25.90;;
1360;SDS011;674;45.552;-122.600;2022-12-07T07:54:05;41.90;;;28.23;;
1360;SDS011;674;45.552;-122.600;2022-12-07T07:56:34;37.17;;;27.73;;
1360;SDS011;674;45.552;-122.600;2022-12-07T07:59:02;37.10;;;28.47;;
1360;SDS011;674;45.552;-122.600;2022-12-07T08:01:30;37.43;;;26.70;;
1360;SDS011;674;45.552;-122.600;2022-12-07T08:03:59;39.33;;;26.93;;
1360;SDS011;674;45.552;-122.600;2022-12-07T08:06:28;48.00;;;30.40;;
1360;SDS011;674;45.552;-122.600;2022-12-07T08:08:58;40.17;;;28.47;;
1360;SDS011;674;45.552;-122.600;2022-12-07T08:11:26;39.07;;;25.83;;
1360;SDS011;674;45.552;-122.600;2022-12-07T08:13:55;33.93;;;25.30;;
1360;SDS011;674;45.552;-122.600;2022-12-07T08:16:23;37.60;;;25.67;;
1360;SDS011;674;45.552;-122.600;2022-12-07T08:18:52;34.97;;;25.80;;
1360;SDS011;674;45.552;-122.600;2022-12-07T08:21:20;34.33;;;26.50;;
1360;SDS011;674;45.552;-122.600;2022-12-07T08:23:49;34.27;;;25.03;;
1360;SDS011;674;45.552;-122.600;2022-12-07T08:26:17;35.70;;;25.47;;
1360;SDS011;674;45.552;-122.600;2022-12-07T08:28:46;38.87;;;25.87;;
1360;SDS011;674;45.552;-122.600;2022-12-07T08:31:15;41.63;;;28.33;;
1360;SDS011;674;45.552;-122.600;2022-12-07T08:33:46;36.17;;;24.70;;
1360;SDS011;674;45.552;-122.600;2022-12-07T08:36:15;41.40;;;28.27;;
1360;SDS011;674;45.552;-122.600;2022-12-07T08:38:45;35.83;;;26.37;;
1360;SDS011;674;45.552;-122.600;2022-12-07T08:41:34;37.40;;;24.90;;
1360;SDS011;674;45.552;-122.600;2022-12-07T08:44:02;32.80;;;24.53;;
1360;SDS011;674;45.552;-122.600;2022-12-07T08:49:21;34.40;;;25.07;;
1360;SDS011;674;45.552;-122.600;2022-12-07T08:51:55;34.33;;;25.17;;
1360;SDS011;674;45.552;-122.600;2022-12-07T08:54:24;34.77;;;25.73;;
1360;SDS011;674;45.552;-122.600;2022-12-07T08:56:52;46.00;;;29.70;;
1360;SDS011;674;45.552;-122.600;2022-12-07T08:59:25;34.87;;;25.47;;
1360;SDS011;674;45.552;-122.600;2022-12-07T09:01:55;43.67;;;29.37;;
1360;SDS011;674;45.552;-122.600;2022-12-07T09:04:24;36.17;;;25.00;;
1360;SDS011;674;45.552;-122.600;2022-12-07T09:06:53;36.43;;;25.87;;
1360;SDS011;674;45.552;-122.600;2022-12-07T09:09:22;41.83;;;29.77;;
1360;SDS011;674;45.552;-122.600;2022-12-07T09:11:51;38.23;;;26.13;;
1360;SDS011;674;45.552;-122.600;2022-12-07T09:14:19;33.60;;;24.40;;
1360;SDS011;674;45.552;-122.600;2022-12-07T09:16:48;36.13;;;25.33;;
1360;SDS011;674;45.552;-122.600;2022-12-07T09:19:16;36.37;;;26.20;;
1360;SDS011;674;45.552;-122.600;2022-12-07T09:21:45;39.43;;;27.60;;
1360;SDS011;674;45.552;-122.600;2022-12-07T09:24:13;34.87;;;24.00;;
1360;SDS011;674;45.552;-122.600;2022-12-07T09:26:42;33.40;;;23.93;;
1360;SDS011;674;45.552;-122.600;2022-12-07T09:29:11;45.40;;;29.83;;
1360;SDS011;674;45.552;-122.600;2022-12-07T09:31:40;48.53;;;32.83;;
1360;SDS011;674;45.552;-122.600;2022-12-07T09:34:08;46.60;;;32.33;;
1360;SDS011;674;45.552;-122.600;2022-12-07T09:36:37;34.17;;;26.10;;
1360;SDS011;674;45.552;-122.600;2022-12-07T09:39:05;43.43;;;29.93;;
1360;SDS011;674;45.552;-122.600;2022-12-07T09:41:36;46.93;;;32.80;;
1360;SDS011;674;45.552;-122.600;2022-12-07T09:44:09;39.50;;;30.40;;
1360;SDS011;674;45.552;-122.600;2022-12-07T09:46:42;42.00;;;30.23;;
1360;SDS011;674;45.552;-122.600;2022-12-07T09:49:13;45.60;;;32.07;;
1360;SDS011;674;45.552;-122.600;2022-12-07T09:51:46;44.23;;;30.50;;
1360;SDS011;674;45.552;-122.600;2022-12-07T09:54:27;49.10;;;33.40;;
1360;SDS011;674;45.552;-122.600;2022-12-07T09:56:58;38.10;;;27.60;;
1360;SDS011;674;45.552;-122.600;2022-12-07T09:59:27;36.20;;;27.27;;
1360;SDS011;674;45.552;-122.600;2022-12-07T10:02:19;56.30;;;33.47;;
1360;SDS011;674;45.552;-122.600;2022-12-07T10:04:49;48.23;;;33.47;;
1360;SDS011;674;45.552;-122.600;2022-12-07T10:07:18;42.70;;;30.30;;
1360;SDS011;674;45.552;-122.600;2022-12-07T10:09:46;40.80;;;29.60;;
1360;SDS011;674;45.552;-122.600;2022-12-07T10:12:16;41.27;;;27.33;;
1360;SDS011;674;45.552;-122.600;2022-12-07T10:15:01;34.10;;;22.50;;
1360;SDS011;674;45.552;-122.600;2022-12-07T10:17:36;34.57;;;25.70;;
1360;SDS011;674;45.552;-122.600;2022-12-07T10:20:24;39.90;;;27.43;;
1360;SDS011;674;45.552;-122.600;2022-12-07T10:25:33;38.37;;;26.87;;
1360;SDS011;674;45.552;-122.600;2022-12-07T10:28:27;44.93;;;30.47;;
1360;SDS011;674;45.552;-122.600;2022-12-07T10:31:17;46.73;;;31.17;;
1360;SDS011;674;45.552;-122.600;2022-12-07T10:33:53;37.70;;;28.30;;
1360;SDS011;674;45.552;-122.600;2022-12-07T10:36:24;41.97;;;28.93;;
1360;SDS011;674;45.552;-122.600;2022-12-07T10:41:28;38.97;;;26.93;;
1360;SDS011;674;45.552;-122.600;2022-12-07T10:43:57;34.57;;;24.37;;
1360;SDS011;674;45.552;-122.600;2022-12-07T10:46:37;48.07;;;31.03;;
1360;SDS011;674;45.552;-122.600;2022-12-07T11:02:59;40.07;;;27.57;;
1360;SDS011;674;45.552;-122.600;2022-12-07T11:05:38;37.23;;;27.37;;
1360;SDS011;674;45.552;-122.600;2022-12-07T11:08:40;39.23;;;28.67;;
1360;SDS011;674;45.552;-122.600;2022-12-07T11:11:36;35.57;;;26.80;;
1360;SDS011;674;45.552;-122.600;2022-12-07T11:14:19;43.20;;;31.53;;
1360;SDS011;674;45.552;-122.600;2022-12-07T11:16:57;39.97;;;30.17;;
1360;SDS011;674;45.552;-122.600;2022-12-07T11:19:46;50.33;;;34.40;;
1360;SDS011;674;45.552;-122.600;2022-12-07T11:22:36;47.27;;;34.37;;
1360;SDS011;674;45.552;-122.600;2022-12-07T11:30:20;37.73;;;27.90;;
1360;SDS011;674;45.552;-122.600;2022-12-07T11:39:02;36.63;;;26.90;;
1360;SDS011;674;45.552;-122.600;2022-12-07T11:41:20;43.67;;;31.23;;
1360;SDS011;674;45.552;-122.600;2022-12-07T11:43:58;33.87;;;28.00;;
1360;SDS011;674;45.552;-122.600;2022-12-07T11:47:05;38.40;;;28.60;;
1360;SDS011;674;45.552;-122.600;2022-12-07T11:49:44;42.53;;;31.33;;
1360;SDS011;674;45.552;-122.600;2022-12-07T11:54:53;37.80;;;30.47;;
1360;SDS011;674;45.552;-122.600;2022-12-07T11:57:32;41.23;;;31.40;;
1360;SDS011;674;45.552;-122.600;2022-12-07T12:00:12;37.80;;;30.23;;
1360;SDS011;674;45.552;-122.600;2022-12-07T12:02:44;37.10;;;30.00;;
1360;SDS011;674;45.552;-122.600;2022-12-07T12:05:21;41.17;;;32.00;;
1360;SDS011;674;45.552;-122.600;2022-12-07T12:07:59;39.73;;;31.03;;
1360;SDS011;674;45.552;-122.600;2022-12-07T12:14:42;44.70;;;34.30;;
1360;SDS011;674;45.552;-122.600;2022-12-07T12:25:45;43.40;;;34.20;;
1360;SDS011;674;45.552;-122.600;2022-12-07T12:28:19;35.37;;;28.27;;
1360;SDS011;674;45.552;-122.600;2022-12-07T12:31:04;36.40;;;27.63;;
1360;SDS011;674;45.552;-122.600;2022-12-07T12:33:52;34.70;;;26.73;;
1360;SDS011;674;45.552;-122.600;2022-12-07T12:46:53;32.73;;;24.90;;
1360;SDS011;674;45.552;-122.600;2022-12-07T12:49:40;39.17;;;30.00;;
1360;SDS011;674;45.552;-122.600;2022-12-07T12:55:16;35.93;;;28.40;;
1360;SDS011;674;45.552;-122.600;2022-12-07T12:58:21;34.97;;;27.17;;
1360;SDS011;674;45.552;-122.600;2022-12-07T13:00:46;41.03;;;29.60;;
1360;SDS011;674;45.552;-122.600;2022-12-07T13:03:26;30.57;;;25.33;;
1360;SDS011;674;45.552;-122.600;2022-12-07T13:08:54;31.37;;;25.33;;
1360;SDS011;674;45.552;-122.600;2022-12-07T13:11:29;33.73;;;24.90;;
1360;SDS011;674;45.552;-122.600;2022-12-07T13:17:54;32.53;;;25.43;;
1360;SDS011;674;45.552;-122.600;2022-12-07T13:27:40;37.40;;;25.87;;
1360;SDS011;674;45.552;-122.600;2022-12-07T13:30:16;36.17;;;26.07;;
1360;SDS011;674;45.552;-122.600;2022-12-07T13:32:51;34.03;;;27.03;;
1360;SDS011;674;45.552;-122.600;2022-12-07T13:35:35;33.17;;;27.07;;
1360;SDS011;674;45.552;-122.600;2022-12-07T13:38:22;33.17;;;24.67;;
1360;SDS011;674;45.552;-122.600;2022-12-07T13:41:11;38.90;;;28.70;;
1360;SDS011;674;45.552;-122.600;2022-12-07T13:43:52;36.83;;;26.40;;
1360;SDS011;674;45.552;-122.600;2022-12-07T13:49:22;40.70;;;28.33;;
1360;SDS011;674;45.552;-122.600;2022-12-07T13:52:13;41.47;;;29.27;;
1360;SDS011;674;45.552;-122.600;2022-12-07T13:54:47;39.00;;;26.57;;
1360;SDS011;674;45.552;-122.600;2022-12-07T13:57:17;43.20;;;29.90;;
1360;SDS011;674;45.552;-122.600;2022-12-07T13:59:46;33.60;;;27.33;;
1360;SDS011;674;45.552;-122.600;2022-12-07T14:02:22;48.70;;;32.20;;
1360;SDS011;674;45.552;-122.600;2022-12-07T14:07:47;40.00;;;28.93;;
1360;SDS011;674;45.552;-122.600;2022-12-07T14:10:38;39.67;;;26.60;;
1360;SDS011;674;45.552;-122.600;2022-12-07T14:13:35;34.17;;;24.87;;
1360;SDS011;674;45.552;-122.600;2022-12-07T14:18:58;35.27;;;26.73;;
1360;SDS011;674;45.552;-122.600;2022-12-07T14:21:29;35.40;;;24.73;;
1360;SDS011;674;45.552;-122.600;2022-12-07T14:24:18;31.27;;;24.10;;
1360;SDS011;674;45.552;-122.600;2022-12-07T14:26:48;29.47;;;22.20;;
1360;SDS011;674;45.552;-122.600;2022-12-07T14:29:18;40.33;;;28.67;;
1360;SDS011;674;45.552;-122.600;2022-12-07T14:31:48;36.80;;;26.73;;
1360;SDS011;674;45.552;-122.600;2022-12-07T14:34:16;36.00;;;26.80;;
1360;SDS011;674;45.552;-122.600;2022-12-07T14:36:48;26.10;;;20.53;;
1360;SDS011;674;45.552;-122.600;2022-12-07T14:39:17;29.37;;;21.83;;
1360;SDS011;674;45.552;-122.600;2022-12-07T14:41:45;26.67;;;20.10;;
1360;SDS011;674;45.552;-122.600;2022-12-07T14:44:21;30.43;;;20.97;;
1360;SDS011;674;45.552;-122.600;2022-12-07T14:46:57;29.10;;;23.23;;
1360;SDS011;674;45.552;-122.600;2022-12-07T14:49:46;31.40;;;22.73;;
1360;SDS011;674;45.552;-122.600;2022-12-07T14:52:15;32.27;;;22.20;;
1360;SDS011;674;45.552;-122.600;2022-12-07T14:55:14;28.13;;;19.33;;
1360;SDS011;674;45.552;-122.600;2022-12-07T14:57:52;30.70;;;20.40;;
1360;SDS011;674;45.552;-122.600;2022-12-07T15:00:21;32.47;;;24.13;;
1360;SDS011;674;45.552;-122.600;2022-12-07T15:02:51;34.17;;;22.60;;
1360;SDS011;674;45.552;-122.600;2022-12-07T15:05:20;28.10;;;19.50;;
1360;SDS011;674;45.552;-122.600;2022-12-07T15:07:49;28.27;;;20.27;;
1360;SDS011;674;45.552;-122.600;2022-12-07T15:10:21;36.23;;;25.23;;
1360;SDS011;674;45.552;-122.600;2022-12-07T15:12:57;26.87;;;20.67;;
1360;SDS011;674;45.552;-122.600;2022-12-07T15:15:46;28.97;;;21.93;;
1360;SDS011;674;45.552;-122.600;2022-12-07T15:18:16;29.30;;;20.60;;
1360;SDS011;674;45.552;-122.600;2022-12-07T15:20:45;30.23;;;22.27;;
1360;SDS011;674;45.552;-122.600;2022-12-07T15:23:14;26.60;;;19.80;;
1360;SDS011;674;45.552;-122.600;2022-12-07T15:25:43;32.77;;;20.20;;
1360;SDS011;674;45.552;-122.600;2022-12-07T15:28:13;28.47;;;20.90;;
1360;SDS011;674;45.552;-122.600;2022-12-07T15:30:43;32.40;;;21.70;;
1360;SDS011;674;45.552;-122.600;2022-12-07T15:33:12;25.43;;;19.23;;
1360;SDS011;674;45.552;-122.600;2022-12-07T15:35:41;27.97;;;20.97;;
1360;SDS011;674;45.552;-122.600;2022-12-07T15:38:11;33.63;;;23.23;;
1360;SDS011;674;45.552;-122.600;2022-12-07T15:40:40;29.70;;;21.20;;
1360;SDS011;674;45.552;-122.600;2022-12-07T15:43:09;28.27;;;20.50;;
1360;SDS011;674;45.552;-122.600;2022-12-07T15:45:57;26.37;;;20.70;;
1360;SDS011;674;45.552;-122.600;2022-12-07T15:48:26;25.83;;;20.07;;
1360;SDS011;674;45.552;-122.600;2022-12-07T15:51:02;28.40;;;20.90;;
1360;SDS011;674;45.552;-122.600;2022-12-07T15:53:32;26.77;;;20.33;;
1360;SDS011;674;45.552;-122.600;2022-12-07T15:56:01;24.70;;;17.80;;
1360;SDS011;674;45.552;-122.600;2022-12-07T15:58:33;28.20;;;20.10;;
1360;SDS011;674;45.552;-122.600;2022-12-07T16:01:09;28.10;;;20.30;;
1360;SDS011;674;45.552;-122.600;2022-12-07T16:03:42;25.67;;;18.17;;
1360;SDS011;674;45.552;-122.600;2022-12-07T16:06:11;30.40;;;22.90;;
1360;SDS011;674;45.552;-122.600;2022-12-07T16:08:43;29.50;;;21.83;;
1360;SDS011;674;45.552;-122.600;2022-12-07T16:11:12;21.80;;;17.80;;
1360;SDS011;674;45.552;-122.600;2022-12-07T16:13:42;27.80;;;20.17;;
1360;SDS011;674;45.552;-122.600;2022-12-07T16:16:12;29.37;;;20.80;;
1360;SDS011;674;45.552;-122.600;2022-12-07T16:18:42;31.93;;;21.10;;
1360;SDS011;674;45.552;-122.600;2022-12-07T16:21:12;26.33;;;18.93;;
1360;SDS011;674;45.552;-122.600;2022-12-07T16:23:45;28.50;;;21.20;;
1360;SDS011;674;45.552;-122.600;2022-12-07T16:26:15;30.60;;;24.07;;
1360;SDS011;674;45.552;-122.600;2022-12-07T16:28:48;25.97;;;19.67;;
1360;SDS011;674;45.552;-122.600;2022-12-07T16:31:19;25.97;;;19.00;;
1360;SDS011;674;45.552;-122.600;2022-12-07T16:33:50;29.17;;;23.67;;
1360;SDS011;674;45.552;-122.600;2022-12-07T16:36:21;27.87;;;21.40;;
1360;SDS011;674;45.552;-122.600;2022-12-07T16:39:12;32.00;;;24.00;;
1360;SDS011;674;45.552;-122.600;2022-12-07T16:41:40;28.73;;;20.73;;
1360;SDS011;674;45.552;-122.600;2022-12-07T16:44:09;32.10;;;24.20;;
1360;SDS011;674;45.552;-122.600;2022-12-07T16:46:39;30.07;;;21.43;;
1360;SDS011;674;45.552;-122.600;2022-12-07T16:49:11;29.10;;;21.60;;
1360;SDS011;674;45.552;-122.600;2022-12-07T16:51:43;28.30;;;22.20;;
1360;SDS011;674;45.552;-122.600;2022-12-07T16:54:11;31.30;;;22.33;;
1360;SDS011;674;45.552;-122.600;2022-12-07T16:56:40;34.73;;;23.00;;
1360;SDS011;674;45.552;-122.600;2022-12-07T16:59:08;31.00;;;23.30;;
1360;SDS011;674;45.552;-122.600;2022-12-07T17:01:37;33.60;;;25.00;;
1360;SDS011;674;45.552;-122.600;2022-12-07T17:04:05;32.60;;;24.45;;
1360;SDS011;674;45.552;-122.600;2022-12-07T17:06:35;28.67;;;24.57;;
1360;SDS011;674;45.552;-122.600;2022-12-07T17:09:04;31.50;;;23.90;;
1360;SDS011;674;45.552;-122.600;2022-12-07T17:11:36;32.60;;;24.83;;
1360;SDS011;674;45.552;-122.600;2022-12-07T17:14:04;32.47;;;25.23;;